Jewel Of The Seas — C6FW9 — position and weather

sailwx.info

Track history (hours):
 
Tides and Currents Weather Stations Pressure Air Temp Water Temp Dewpoint Dewpoint Depression Visibility Wind Speed Wind Dir Waves Ship Positions

Jewel Of The Seas

Operator: Royal Caribbean Cruises Ltd

Last reported at 2017-May-28 23:00 UTC. Time now 2017-May-29 17:04 UTC.
Position N 36°12' E 026°00'.

Length 290 m; draft 8.6 m.

Type: Passenger vessel. MMSI: 311583000.

Wind from 340 at 14 knots

Barometer 1010.0 mb
Air temperature 20.0 ° C
Visibility: greater than 5.4 NM
Water temperature 20.5 ° C

Date/timePositionNaut miles runAvg speedWind from/ knotsBaromVisibWave heightAir tempDewpointWater temp
2017-May-28 23:00N 36°12' E 026°00'68 3.0 340 / 141010.0 5.4 20.0 20.5
2017-May-28 00:00N 36°18' E 027°24'9313.9 300 / 121009.0 19.1 20.3
2017-May-27 17:17N 37°15' E 025°52'313.1
2017-May-27 17:01N 37°17' E 025°49'713.1
2017-May-27 16:30N 37°22' E 025°43'613.1
2017-May-27 16:01N 37°27' E 025°37'713.2
2017-May-27 15:31N 37°30' E 025°30'713.4
2017-May-27 15:00N 37°31' E 025°22'5 9.4
2017-May-27 14:31N 37°28' E 025°18'1 1.2
2017-May-27 13:29N 37°28' E 025°19'0 0.0
2017-May-27 12:59N 37°28' E 025°19'0 0.0
2017-May-27 12:29N 37°28' E 025°19'0 0.0
2017-May-27 11:59N 37°28' E 025°19'0 0.0
2017-May-27 11:26N 37°28' E 025°19'0 0.0
2017-May-27 10:59N 37°28' E 025°19'0 0.0
2017-May-27 10:23N 37°28' E 025°19'0 0.0
2017-May-27 09:59N 37°28' E 025°19'0 0.0
2017-May-27 09:29N 37°28' E 025°19'0 0.0
2017-May-27 08:59N 37°28' E 025°19'0 0.0
2017-May-27 08:26N 37°28' E 025°19'0 0.0
2017-May-27 07:59N 37°28' E 025°19'0 0.0
2017-May-27 07:29N 37°28' E 025°19'0 0.0
2017-May-27 06:59N 37°28' E 025°19'0 0.0
2017-May-27 06:29N 37°28' E 025°19'0 0.0
2017-May-27 05:59N 37°28' E 025°19'0 0.0
2017-May-27 05:29N 37°28' E 025°19'0 0.0
2017-May-27 04:59N 37°28' E 025°19'0 0.0
2017-May-27 04:29N 37°28' E 025°19'0 0.0
2017-May-27 03:59N 37°28' E 025°19'0 0.4
2017-May-27 03:31N 37°28' E 025°19'4 8.8
2017-May-27 03:00N 37°28' E 025°14'714.4
2017-May-27 02:30N 37°23' E 025°07'815.6
2017-May-27 02:00N 37°17' E 025°00'815.9
2017-May-27 01:30N 37°13' E 024°52'30915.1
2017-May-26 05:00N 37°06' E 018°24'12415.2 020 / 121010.0 5.4 19.2 20.2
2017-May-25 20:49N 37°45' E 015°56'515.9
2017-May-25 20:29N 37°47' E 015°50'815.8
2017-May-25 20:00N 37°49' E 015°41'815.8
2017-May-25 19:30N 37°55' E 015°34'815.0
2017-May-25 19:00N 38°03' E 015°33'815.9
2017-May-25 18:30N 38°11' E 015°35'2 3.2
2017-May-25 17:59N 38°12' E 015°33'0 0.0
2017-May-25 17:23N 38°12' E 015°33'0 0.0
2017-May-25 16:59N 38°12' E 015°33'0 0.0
2017-May-25 16:29N 38°12' E 015°33'0 0.0
2017-May-25 15:59N 38°12' E 015°33'0 0.0
2017-May-25 15:29N 38°12' E 015°33'0 0.0
2017-May-25 14:59N 38°12' E 015°33'0 0.0
2017-May-25 13:59N 38°12' E 015°33'0 0.0
2017-May-25 13:29N 38°12' E 015°33'0 0.0
2017-May-25 12:59N 38°12' E 015°33'0 0.0
2017-May-25 12:29N 38°12' E 015°33'0 0.0
2017-May-25 11:59N 38°12' E 015°33'0 0.0
2017-May-25 11:29N 38°12' E 015°33'0 0.0
2017-May-25 10:59N 38°12' E 015°33'0 0.0
2017-May-25 10:29N 38°12' E 015°33'0 0.0
2017-May-25 09:59N 38°12' E 015°33'0 0.0
2017-May-25 09:29N 38°12' E 015°33'0 0.0
2017-May-25 08:59N 38°12' E 015°33'0 0.0
2017-May-25 08:29N 38°12' E 015°33'0 0.0
2017-May-25 07:59N 38°12' E 015°33'0 0.0
2017-May-25 07:29N 38°12' E 015°33'0 0.0
2017-May-25 07:01N 38°12' E 015°34'3 5.4
2017-May-25 06:31N 38°14' E 015°36'612.8
2017-May-25 06:00N 38°20' E 015°39'1020.7
2017-May-25 05:30N 38°27' E 015°30'1020.7
2017-May-25 05:00N 38°35' E 015°20'1020.9
2017-May-25 04:30N 38°42' E 015°11'1020.6
2017-May-25 04:00N 38°49' E 015°02'1020.5
2017-May-25 03:30N 38°56' E 014°52'5720.5
2017-May-25 00:44N 39°37' E 014°01'520.3
2017-May-25 00:30N 39°40' E 013°56'1020.3
2017-May-25 00:00N 39°47' E 013°47'1020.4
2017-May-24 23:30N 39°55' E 013°38'1020.4
2017-May-24 23:00N 40°02' E 013°29'1220.4
2017-May-24 22:25N 40°10' E 013°17'920.0
2017-May-24 21:59N 40°17' E 013°09'1320.2
2017-May-24 21:21N 40°26' E 012°58'720.3
2017-May-24 20:59N 40°31' E 012°51'1020.5
2017-May-24 20:30N 40°38' E 012°42'1020.4
2017-May-24 19:59N 40°46' E 012°32'1320.5
2017-May-24 19:22N 40°57' E 012°24'820.3
2017-May-24 18:58N 41°04' E 012°18'1020.2
2017-May-24 18:29N 41°12' E 012°12'1020.2
2017-May-24 17:58N 41°21' E 012°04'1120.4
2017-May-24 17:26N 41°31' E 011°57'920.3
2017-May-24 16:58N 41°39' E 011°51'1020.4
2017-May-24 16:30N 41°48' E 011°46'1120.0
2017-May-24 15:58N 41°57' E 011°41'816.6
2017-May-24 15:28N 42°06' E 011°42'3 3.2
2017-May-24 14:26N 42°06' E 011°46'139 4.0
2017-May-23 03:31N 40°38' E 014°10'417.0
2017-May-23 03:17N 40°35' E 014°08'1817.0
2017-May-23 02:14N 40°17' E 014°14'617.0
2017-May-23 01:54N 40°12' E 014°18'10116.6
2017-May-22 19:49N 38°46' E 015°25'816.6
2017-May-22 19:19N 38°39' E 015°30'516.7
2017-May-22 19:00N 38°34' E 015°34'816.9
2017-May-22 18:30N 38°27' E 015°39'816.5
2017-May-22 18:00N 38°19' E 015°44'714.6
2017-May-22 17:31N 38°14' E 015°37'816.4
2017-May-22 17:00N 38°06' E 015°35'918.8
2017-May-22 16:30N 37°57' E 015°35'918.9
2017-May-22 16:00N 37°52' E 015°45'1020.0
2017-May-22 15:29N 37°49' E 015°58'31218.9
2017-May-21 23:00N 36°18' E 022°12'10219.4 340 / 281007.0 18.2 18.2
2017-May-21 17:44N 37°31' E 023°41'520.2
2017-May-21 17:30N 37°36' E 023°42'919.1
2017-May-21 17:00N 37°45' E 023°39'918.6
2017-May-21 16:30N 37°54' E 023°37'3 6.1
2017-May-21 16:00N 37°56' E 023°38'0 0.1
2017-May-21 15:30N 37°56' E 023°38'0 0.0
2017-May-21 15:00N 37°56' E 023°38'0 0.0
2017-May-21 14:27N 37°56' E 023°38'0 0.0
2017-May-21 13:30N 37°56' E 023°38'0 0.0
2017-May-21 13:00N 37°56' E 023°38'0 0.0
2017-May-21 12:30N 37°56' E 023°38'0 0.0
2017-May-21 12:00N 37°56' E 023°38'0 0.0
2017-May-21 11:27N 37°56' E 023°38'0 0.0
2017-May-21 11:00N 37°56' E 023°38'0 0.0
2017-May-21 10:30N 37°56' E 023°38'0 0.0
2017-May-21 10:00N 37°56' E 023°38'0 0.0
2017-May-21 09:30N 37°56' E 023°38'0 0.0
2017-May-21 09:00N 37°56' E 023°38'0 0.0
2017-May-21 08:30N 37°56' E 023°38'0 0.0
2017-May-21 08:00N 37°56' E 023°38'0 0.0
2017-May-21 07:27N 37°56' E 023°38'0 0.0
2017-May-21 06:54N 37°56' E 023°38'0 0.0
2017-May-21 06:30N 37°56' E 023°38'0 0.0
2017-May-21 06:01N 37°56' E 023°38'1 1.9
2017-May-21 05:31N 37°56' E 023°37'2 3.2
2017-May-21 05:00N 37°55' E 023°37'1 1.4
2017-May-21 04:30N 37°54' E 023°37'1 2.4
2017-May-21 04:01N 37°53' E 023°38'1 2.2
2017-May-21 03:30N 37°52' E 023°38'2 3.5
2017-May-21 03:01N 37°54' E 023°37'2 4.1
2017-May-21 02:30N 37°52' E 023°35'3 5.1
2017-May-21 02:00N 37°55' E 023°37'1 1.0
2017-May-21 01:30N 37°55' E 023°36'1 1.2
2017-May-21 01:01N 37°55' E 023°37'611.7
2017-May-21 00:31N 37°49' E 023°40'713.3
2017-May-21 00:01N 37°43' E 023°44'713.6
2017-May-20 23:31N 37°37' E 023°47'714.0
2017-May-20 23:01N 37°30' E 023°49'713.7
2017-May-20 22:30N 37°24' E 023°50'1712.7
2017-May-20 21:10N 37°08' E 023°59'513.4
2017-May-20 20:50N 37°04' E 024°02'413.5
2017-May-20 20:30N 37°01' E 024°06'713.5
2017-May-20 20:00N 36°54' E 024°07'713.7
2017-May-20 19:31N 36°48' E 024°09'137 5.8
2017-May-19 20:00N 36°12' E 026°54'   340 / 301009.0 5.4 20.0
Track history (hours):
 
Tides and Currents Weather Stations Pressure Air Temp Water Temp Dewpoint Dewpoint Depression Visibility Wind Speed Wind Dir Waves Ship Positions

Jewel Of The Seas

Operator: Royal Caribbean Cruises Ltd

Last reported at 2017-May-28 23:00 UTC. Time now 2017-May-29 17:04 UTC.
Position N 36°12' E 026°00'.

Length 290 m; draft 8.6 m.

Type: Passenger vessel. MMSI: 311583000.

Wind from 340 at 14 knots

Barometer 1010.0 mb
Air temperature 20.0 ° C
Visibility: greater than 5.4 NM
Water temperature 20.5 ° C

Date/timePositionNaut miles runAvg speedWind from/ knotsBaromVisibWave heightAir tempDewpointWater temp
2017-May-28 23:00N 36°12' E 026°00'68 3.0 340 / 141010.0 5.4 20.0 20.5
2017-May-28 00:00N 36°18' E 027°24'9313.9 300 / 121009.0 19.1 20.3
2017-May-27 17:17N 37°15' E 025°52'313.1
2017-May-27 17:01N 37°17' E 025°49'713.1
2017-May-27 16:30N 37°22' E 025°43'613.1
2017-May-27 16:01N 37°27' E 025°37'713.2
2017-May-27 15:31N 37°30' E 025°30'713.4
2017-May-27 15:00N 37°31' E 025°22'5 9.4
2017-May-27 14:31N 37°28' E 025°18'1 1.2
2017-May-27 13:29N 37°28' E 025°19'0 0.0
2017-May-27 12:59N 37°28' E 025°19'0 0.0
2017-May-27 12:29N 37°28' E 025°19'0 0.0
2017-May-27 11:59N 37°28' E 025°19'0 0.0
2017-May-27 11:26N 37°28' E 025°19'0 0.0
2017-May-27 10:59N 37°28' E 025°19'0 0.0
2017-May-27 10:23N 37°28' E 025°19'0 0.0
2017-May-27 09:59N 37°28' E 025°19'0 0.0
2017-May-27 09:29N 37°28' E 025°19'0 0.0
2017-May-27 08:59N 37°28' E 025°19'0 0.0
2017-May-27 08:26N 37°28' E 025°19'0 0.0
2017-May-27 07:59N 37°28' E 025°19'0 0.0
2017-May-27 07:29N 37°28' E 025°19'0 0.0
2017-May-27 06:59N 37°28' E 025°19'0 0.0
2017-May-27 06:29N 37°28' E 025°19'0 0.0
2017-May-27 05:59N 37°28' E 025°19'0 0.0
2017-May-27 05:29N 37°28' E 025°19'0 0.0
2017-May-27 04:59N 37°28' E 025°19'0 0.0
2017-May-27 04:29N 37°28' E 025°19'0 0.0
2017-May-27 03:59N 37°28' E 025°19'0 0.4
2017-May-27 03:31N 37°28' E 025°19'4 8.8
2017-May-27 03:00N 37°28' E 025°14'714.4
2017-May-27 02:30N 37°23' E 025°07'815.6
2017-May-27 02:00N 37°17' E 025°00'815.9
2017-May-27 01:30N 37°13' E 024°52'30915.1
2017-May-26 05:00N 37°06' E 018°24'12415.2 020 / 121010.0 5.4 19.2 20.2
2017-May-25 20:49N 37°45' E 015°56'515.9
2017-May-25 20:29N 37°47' E 015°50'815.8
2017-May-25 20:00N 37°49' E 015°41'815.8
2017-May-25 19:30N 37°55' E 015°34'815.0
2017-May-25 19:00N 38°03' E 015°33'815.9
2017-May-25 18:30N 38°11' E 015°35'2 3.2
2017-May-25 17:59N 38°12' E 015°33'0 0.0
2017-May-25 17:23N 38°12' E 015°33'0 0.0
2017-May-25 16:59N 38°12' E 015°33'0 0.0
2017-May-25 16:29N 38°12' E 015°33'0 0.0
2017-May-25 15:59N 38°12' E 015°33'0 0.0
2017-May-25 15:29N 38°12' E 015°33'0 0.0
2017-May-25 14:59N 38°12' E 015°33'0 0.0
2017-May-25 13:59N 38°12' E 015°33'0 0.0
2017-May-25 13:29N 38°12' E 015°33'0 0.0
2017-May-25 12:59N 38°12' E 015°33'0 0.0
2017-May-25 12:29N 38°12' E 015°33'0 0.0
2017-May-25 11:59N 38°12' E 015°33'0 0.0
2017-May-25 11:29N 38°12' E 015°33'0 0.0
2017-May-25 10:59N 38°12' E 015°33'0 0.0
2017-May-25 10:29N 38°12' E 015°33'0 0.0
2017-May-25 09:59N 38°12' E 015°33'0 0.0
2017-May-25 09:29N 38°12' E 015°33'0 0.0
2017-May-25 08:59N 38°12' E 015°33'0 0.0
2017-May-25 08:29N 38°12' E 015°33'0 0.0
2017-May-25 07:59N 38°12' E 015°33'0 0.0
2017-May-25 07:29N 38°12' E 015°33'0 0.0
2017-May-25 07:01N 38°12' E 015°34'3 5.4
2017-May-25 06:31N 38°14' E 015°36'612.8
2017-May-25 06:00N 38°20' E 015°39'1020.7
2017-May-25 05:30N 38°27' E 015°30'1020.7
2017-May-25 05:00N 38°35' E 015°20'1020.9
2017-May-25 04:30N 38°42' E 015°11'1020.6
2017-May-25 04:00N 38°49' E 015°02'1020.5
2017-May-25 03:30N 38°56' E 014°52'5720.5
2017-May-25 00:44N 39°37' E 014°01'520.3
2017-May-25 00:30N 39°40' E 013°56'1020.3
2017-May-25 00:00N 39°47' E 013°47'1020.4
2017-May-24 23:30N 39°55' E 013°38'1020.4
2017-May-24 23:00N 40°02' E 013°29'1220.4
2017-May-24 22:25N 40°10' E 013°17'920.0
2017-May-24 21:59N 40°17' E 013°09'1320.2
2017-May-24 21:21N 40°26' E 012°58'720.3
2017-May-24 20:59N 40°31' E 012°51'1020.5
2017-May-24 20:30N 40°38' E 012°42'1020.4
2017-May-24 19:59N 40°46' E 012°32'1320.5
2017-May-24 19:22N 40°57' E 012°24'820.3
2017-May-24 18:58N 41°04' E 012°18'1020.2
2017-May-24 18:29N 41°12' E 012°12'1020.2
2017-May-24 17:58N 41°21' E 012°04'1120.4
2017-May-24 17:26N 41°31' E 011°57'920.3
2017-May-24 16:58N 41°39' E 011°51'1020.4
2017-May-24 16:30N 41°48' E 011°46'1120.0
2017-May-24 15:58N 41°57' E 011°41'816.6
2017-May-24 15:28N 42°06' E 011°42'3 3.2
2017-May-24 14:26N 42°06' E 011°46'139 4.0
2017-May-23 03:31N 40°38' E 014°10'417.0
2017-May-23 03:17N 40°35' E 014°08'1817.0
2017-May-23 02:14N 40°17' E 014°14'617.0
2017-May-23 01:54N 40°12' E 014°18'10116.6
2017-May-22 19:49N 38°46' E 015°25'816.6
2017-May-22 19:19N 38°39' E 015°30'516.7
2017-May-22 19:00N 38°34' E 015°34'816.9
2017-May-22 18:30N 38°27' E 015°39'816.5
2017-May-22 18:00N 38°19' E 015°44'714.6
2017-May-22 17:31N 38°14' E 015°37'816.4
2017-May-22 17:00N 38°06' E 015°35'918.8
2017-May-22 16:30N 37°57' E 015°35'918.9
2017-May-22 16:00N 37°52' E 015°45'1020.0
2017-May-22 15:29N 37°49' E 015°58'31218.9
2017-May-21 23:00N 36°18' E 022°12'10219.4 340 / 281007.0 18.2 18.2
2017-May-21 17:44N 37°31' E 023°41'520.2
2017-May-21 17:30N 37°36' E 023°42'919.1
2017-May-21 17:00N 37°45' E 023°39'918.6
2017-May-21 16:30N 37°54' E 023°37'3 6.1
2017-May-21 16:00N 37°56' E 023°38'0 0.1
2017-May-21 15:30N 37°56' E 023°38'0 0.0
2017-May-21 15:00N 37°56' E 023°38'0 0.0
2017-May-21 14:27N 37°56' E 023°38'0 0.0
2017-May-21 13:30N 37°56' E 023°38'0 0.0
2017-May-21 13:00N 37°56' E 023°38'0 0.0
2017-May-21 12:30N 37°56' E 023°38'0 0.0
2017-May-21 12:00N 37°56' E 023°38'0 0.0
2017-May-21 11:27N 37°56' E 023°38'0 0.0
2017-May-21 11:00N 37°56' E 023°38'0 0.0
2017-May-21 10:30N 37°56' E 023°38'0 0.0
2017-May-21 10:00N 37°56' E 023°38'0 0.0
2017-May-21 09:30N 37°56' E 023°38'0 0.0
2017-May-21 09:00N 37°56' E 023°38'0 0.0
2017-May-21 08:30N 37°56' E 023°38'0 0.0
2017-May-21 08:00N 37°56' E 023°38'0 0.0
2017-May-21 07:27N 37°56' E 023°38'0 0.0
2017-May-21 06:54N 37°56' E 023°38'0 0.0
2017-May-21 06:30N 37°56' E 023°38'0 0.0
2017-May-21 06:01N 37°56' E 023°38'1 1.9
2017-May-21 05:31N 37°56' E 023°37'2 3.2
2017-May-21 05:00N 37°55' E 023°37'1 1.4
2017-May-21 04:30N 37°54' E 023°37'1 2.4
2017-May-21 04:01N 37°53' E 023°38'1 2.2
2017-May-21 03:30N 37°52' E 023°38'2 3.5
2017-May-21 03:01N 37°54' E 023°37'2 4.1
2017-May-21 02:30N 37°52' E 023°35'3 5.1
2017-May-21 02:00N 37°55' E 023°37'1 1.0
2017-May-21 01:30N 37°55' E 023°36'1 1.2
2017-May-21 01:01N 37°55' E 023°37'611.7
2017-May-21 00:31N 37°49' E 023°40'713.3
2017-May-21 00:01N 37°43' E 023°44'713.6
2017-May-20 23:31N 37°37' E 023°47'714.0
2017-May-20 23:01N 37°30' E 023°49'713.7
2017-May-20 22:30N 37°24' E 023°50'1712.7
2017-May-20 21:10N 37°08' E 023°59'513.4
2017-May-20 20:50N 37°04' E 024°02'413.5
2017-May-20 20:30N 37°01' E 024°06'713.5
2017-May-20 20:00N 36°54' E 024°07'713.7
2017-May-20 19:31N 36°48' E 024°09'137 5.8
2017-May-19 20:00N 36°12' E 026°54'   340 / 301009.0 5.4 20.0

Dump ship's entire track history